メインページ
METAR-TAF:

METAR-TAF

空港 :

ダブリン空港

ダブリン, アイルランド

緯度: 53-26N, 経度: 006-15W, 海抜: 68m

現時点の気象観測

当レポートは14分前の06:30(UTC)に作成
西/南西の風 10kt、南/南西から西の間で変化する
気温 1°C
湿度 93%
気圧 986 hPa
視程10km以上
高度1000ftの千切れ雲あり
高度2000ftの千切れ雲あり

METAR: EIDW 150630Z 25010KT 210V280 9999 BKN010 BKN020 01/M00 Q0986 NOSIG

時間: 06:44 (06:44 UTC)

予報

当レポートは1時間44分前の05:00(UTC)に作成
予報は15日の 06時(UTC)から 16日の 06時(UTC)まで有効
西/南西の風 13kt
視程10km以上
高度1800ftの雲はほとんどない
高度2500ftの千切れ雲あり
15日の 06時(UTC)から 15日の 09時(UTC)まで一時的に
高度400ftの雲は散在している
高度700ftの千切れ雲あり
15日の 08時(UTC)から 15日の 10時(UTC)まで徐々に
南/南西の風 6kt
15日の 12時(UTC)から 15日の 14時(UTC)まで徐々に
南/南東の風 8kt
確率 30% :
15日の 14時(UTC)から 15日の 16時(UTC)まで一時的に
高度1200ftの雲は散在している
高度1800ftの雲は散在している, 積乱雲.
弱いにわか雨
15日の 21時(UTC)から 15日の 23時(UTC)まで徐々に
南/南西の風 12kt
確率 30% :
15日の 22時(UTC)から 15日の 24時(UTC)まで一時的に
高度700ftの雲は散在している
高度1000ftの千切れ雲あり
弱いにわか雨
16日の 00時(UTC)から 16日の 02時(UTC)まで徐々に
南西の風 16kt、最大27ktの突風を伴う
16日の 03時(UTC)から 16日の 05時(UTC)まで徐々に
西/南西の風 17kt、最大28ktの突風を伴う

TAF: EIDW 150500Z 1506/1606 24013KT 9999 FEW018 BKN025 TEMPO 1506/1509 SCT004 BKN007 BECMG 1508/1510 21006KT BECMG 1512/1514 16008KT PROB30 TEMPO 1514/1516 -SHRA SCT012 SCT018CB BECMG 1521/1523 20012KT PROB30 TEMPO 1522/1524 -SHRA SCT007 BKN010 BECMG 1600/1602 22016G27KT BECMG 1603/1605 25017G28KT

4,000以上の空港の気象観測と天気予報(METAR報とTAF報)

利用可能な観測所は地図上に黄色い丸と赤い丸で示す。

丸の上にカーソルを重ねると観測所名を参照できる。

次にクリックすると気象観測と天気予報を参照できる。

マップの切り替え:黒色「×」印の緑ボタンをクリックして拡大、「-」印の緑ボタンをクリックして縮小、緑色の三角印をクリックして隣りの地図に切り替え


METAR-TAF: